Time;durP1;ratioP1;P1;durP2;ratioP2;P2;SDS_P1;SDS_P2;PMS_P1;PMS_P2;Temp;Humidity;BMP_temperature;BMP_pressure;BME280_temperature;BME280_humidity;BME280_pressure;Samples;Min_cycle;Max_cycle;Signal;HPM_P1;HPM_P2
2022/05/31 00:01:00;;;;;;;1.33;1.23;;;7.20;99.90;;;;;;4997508;28;20691;-80
2022/05/31 00:03:26;;;;;;;2.22;1.38;;;7.20;99.90;;;;;;5004741;28;20041;-80
2022/05/31 00:05:52;;;;;;;1.50;1.33;;;7.20;99.90;;;;;;5016726;28;20029;-79
2022/05/31 00:08:18;;;;;;;3.75;1.15;;;7.20;99.90;;;;;;5002486;28;20034;-79
2022/05/31 00:10:44;;;;;;;1.05;0.95;;;7.20;99.90;;;;;;4995715;28;20037;-80
2022/05/31 00:13:10;;;;;;;1.88;1.40;;;7.20;99.90;;;;;;4995622;28;20064;-80
2022/05/31 00:15:36;;;;;;;1.70;1.20;;;7.20;99.90;;;;;;5005680;28;20052;-79
2022/05/31 00:18:01;;;;;;;2.13;1.40;;;7.20;99.90;;;;;;5005108;28;20033;-81
2022/05/31 00:20:27;;;;;;;3.78;2.08;;;7.20;99.90;;;;;;5020203;28;20030;-81
2022/05/31 00:22:53;;;;;;;1.65;1.55;;;7.20;99.90;;;;;;5024175;28;20419;-81
2022/05/31 00:25:19;;;;;;;2.47;1.98;;;7.20;99.90;;;;;;4987126;28;20129;-79
2022/05/31 00:27:45;;;;;;;2.67;2.05;;;7.20;99.90;;;;;;5024942;28;20093;-78
2022/05/31 00:30:13;;;;;;;2.40;1.90;;;7.20;99.90;;;;;;4992147;28;20042;-80
2022/05/31 00:32:42;;;;;;;1.90;1.70;;;7.10;99.90;;;;;;5006349;28;20064;-80
2022/05/31 00:35:13;;;;;;;2.60;1.73;;;7.10;99.90;;;;;;5000435;28;20038;-81
2022/05/31 00:37:39;;;;;;;1.58;1.48;;;7.10;99.90;;;;;;4995634;28;20112;-80
2022/05/31 00:40:06;;;;;;;4.10;1.77;;;7.10;99.90;;;;;;5004522;28;20046;-80
2022/05/31 00:42:49;;;;;;;2.35;1.70;;;7.10;99.90;;;;;;5012407;28;20026;-81
2022/05/31 00:45:14;;;;;;;2.70;1.52;;;7.10;99.90;;;;;;4996983;28;20049;-80
2022/05/31 00:47:40;;;;;;;1.77;1.63;;;7.00;99.90;;;;;;5018548;28;20037;-81
2022/05/31 00:50:23;;;;;;;1.77;1.67;;;7.00;99.90;;;;;;4984441;28;20065;-81
2022/05/31 00:52:52;;;;;;;2.65;1.55;;;7.00;99.90;;;;;;4995121;28;20056;-80
2022/05/31 00:55:42;;;;;;;2.00;1.45;;;7.00;99.90;;;;;;5002432;28;20030;-81
2022/05/31 00:58:20;;;;;;;1.58;1.48;;;6.90;99.90;;;;;;5005953;28;20041;-79
2022/05/31 01:00:46;;;;;;;2.72;1.52;;;6.90;99.90;;;;;;4995978;28;20030;-79
2022/05/31 01:03:15;;;;;;;1.50;1.35;;;6.90;99.90;;;;;;5011389;28;20038;-81
2022/05/31 01:05:41;;;;;;;1.63;1.30;;;6.80;99.90;;;;;;5016832;28;20022;-80
2022/05/31 01:08:07;;;;;;;1.27;1.10;;;6.80;99.90;;;;;;5026794;28;20068;-81
2022/05/31 01:10:49;;;;;;;1.30;1.20;;;6.80;99.90;;;;;;5012345;28;20030;-81
2022/05/31 01:13:44;;;;;;;1.65;1.33;;;6.80;99.90;;;;;;5001410;28;20030;-82
2022/05/31 01:16:28;;;;;;;1.65;1.50;;;6.70;99.90;;;;;;5005521;28;20049;-80
2022/05/31 01:19:55;;;;;;;2.65;1.52;;;6.70;99.90;;;;;;5026223;28;20037;-78
2022/05/31 01:21:58;;;;;;;3.13;2.03;;;6.60;99.90;;;;;;5027913;28;20033;-79
2022/05/31 01:24:53;;;;;;;1.70;1.55;;;6.60;99.90;;;;;;5006443;28;20121;-79
2022/05/31 01:27:48;;;;;;;2.45;1.30;;;6.50;99.90;;;;;;5022364;28;20098;-80
2022/05/31 01:30:14;;;;;;;2.28;1.70;;;6.50;99.90;;;;;;4969051;28;20038;-79
2022/05/31 01:32:47;;;;;;;2.03;1.80;;;6.50;99.90;;;;;;5013486;28;20050;-79
2022/05/31 01:35:26;;;;;;;2.35;1.60;;;6.50;99.90;;;;;;4998835;28;20065;-80
2022/05/31 01:38:05;;;;;;;1.90;1.70;;;6.50;99.90;;;;;;5023682;28;20477;-80
2022/05/31 01:40:38;;;;;;;1.50;1.40;;;6.50;99.90;;;;;;5017825;28;20033;-80
2022/05/31 01:43:04;;;;;;;1.50;1.40;;;6.50;99.90;;;;;;5025367;28;20025;-81
2022/05/31 01:45:37;;;;;;;2.15;1.73;;;6.50;99.90;;;;;;4982382;28;20038;-81
2022/05/31 01:48:05;;;;;;;2.17;1.85;;;6.40;99.90;;;;;;5006588;28;20033;-80
2022/05/31 01:50:32;;;;;;;1.90;1.55;;;6.40;99.90;;;;;;4964869;28;20125;-81
2022/05/31 01:52:58;;;;;;;2.53;1.60;;;6.40;99.90;;;;;;5001644;28;20033;-79
2022/05/31 01:55:24;;;;;;;2.33;1.60;;;6.40;99.90;;;;;;4998795;28;20116;-80
2022/05/31 01:57:56;;;;;;;2.28;2.00;;;6.40;99.90;;;;;;5006403;28;20121;-81
2022/05/31 02:00:21;;;;;;;3.85;2.05;;;6.40;99.90;;;;;;5000759;28;20080;-81
2022/05/31 02:02:51;;;;;;;2.00;1.80;;;6.40;99.90;;;;;;5017991;28;20122;-79
2022/05/31 02:05:18;;;;;;;2.05;1.85;;;6.30;99.90;;;;;;5022691;28;20056;-79
2022/05/31 02:08:02;;;;;;;1.77;1.60;;;6.40;99.90;;;;;;5015734;28;20026;-80
2022/05/31 02:10:32;;;;;;;2.20;1.77;;;6.30;99.90;;;;;;4971321;28;20041;-80
2022/05/31 02:12:59;;;;;;;2.90;2.28;;;6.30;99.90;;;;;;5016951;28;20034;-80
2022/05/31 02:15:46;;;;;;;1.98;1.77;;;6.30;99.90;;;;;;4979499;28;20156;-79
2022/05/31 02:18:15;;;;;;;2.42;1.98;;;6.30;99.90;;;;;;5021239;28;20061;-81
2022/05/31 02:21:01;;;;;;;;;;;6.30;99.90;;;;;;5014580;28;20042;-80
2022/05/31 02:23:26;;;;;;;;;;;6.30;99.90;;;;;;5001298;28;19921;-80
2022/05/31 02:25:52;;;;;;;2.00;1.70;;;6.20;99.90;;;;;;4998936;28;19919;-80
2022/05/31 02:28:18;;;;;;;4.47;1.60;;;6.30;99.90;;;;;;4999608;28;20493;-78
2022/05/31 02:30:44;;;;;;;1.75;1.48;;;6.20;99.90;;;;;;4993525;28;20033;-79
2022/05/31 02:33:09;;;;;;;1.75;1.40;;;6.20;99.90;;;;;;5002588;28;20033;-79
2022/05/31 02:35:35;;;;;;;1.83;1.67;;;6.20;99.90;;;;;;5015530;28;20055;-79
2022/05/31 02:38:01;;;;;;;3.17;1.92;;;6.20;99.90;;;;;;5005684;28;20033;-79
2022/05/31 02:40:27;;;;;;;3.80;1.80;;;6.10;99.90;;;;;;4998095;28;20058;-79
2022/05/31 02:42:53;;;;;;;2.25;1.83;;;6.10;99.90;;;;;;4996902;28;20042;-81
2022/05/31 02:45:19;;;;;;;2.65;1.95;;;6.10;99.90;;;;;;4977031;28;20037;-80
2022/05/31 02:47:46;;;;;;;2.30;2.10;;;6.00;99.90;;;;;;4987000;28;20038;-79
2022/05/31 02:50:12;;;;;;;1.70;1.50;;;6.00;99.90;;;;;;4999338;28;20048;-79
2022/05/31 02:52:37;;;;;;;2.45;2.15;;;6.00;99.90;;;;;;4981904;28;20042;-79
2022/05/31 02:55:04;;;;;;;3.13;2.10;;;6.00;99.90;;;;;;4981533;28;20030;-79
2022/05/31 02:57:29;;;;;;;3.40;2.17;;;6.00;99.90;;;;;;5022720;28;20412;-79
2022/05/31 03:00:22;;;;;;;3.17;2.15;;;6.00;99.90;;;;;;4981951;28;20077;-80
2022/05/31 03:03:06;;;;;;;2.28;1.95;;;6.00;99.90;;;;;;5010679;28;20044;-78
2022/05/31 03:05:32;;;;;;;2.42;2.17;;;6.00;99.90;;;;;;4975563;28;20035;-77
2022/05/31 03:08:18;;;;;;;2.22;2.03;;;5.90;99.90;;;;;;5007709;28;20104;-80
2022/05/31 03:11:10;;;;;;;3.55;2.17;;;6.00;99.90;;;;;;4993910;28;20030;-77
2022/05/31 03:13:36;;;;;;;3.00;2.20;;;5.90;99.90;;;;;;5003471;28;20041;-80
2022/05/31 03:16:03;;;;;;;3.33;2.40;;;6.00;99.90;;;;;;4989648;28;20049;-78
2022/05/31 03:18:36;;;;;;;2.50;2.20;;;6.00;99.90;;;;;;5014125;28;20061;-79
2022/05/31 03:21:09;;;;;;;3.70;2.50;;;6.00;99.90;;;;;;4993149;28;20076;-79
2022/05/31 03:23:46;;;;;;;2.50;2.30;;;6.00;99.90;;;;;;4997978;28;20678;-79
2022/05/31 03:26:16;;;;;;;4.47;2.30;;;5.90;99.90;;;;;;4994951;28;20060;-79
2022/05/31 03:28:41;;;;;;;3.83;2.70;;;5.90;99.90;;;;;;4996586;28;20038;-78
2022/05/31 03:31:08;;;;;;;5.15;2.70;;;5.90;99.90;;;;;;4988417;28;20698;-80
2022/05/31 03:33:34;;;;;;;4.45;3.08;;;5.90;99.90;;;;;;4994758;28;20046;-78
2022/05/31 03:36:01;;;;;;;4.03;2.50;;;5.90;99.90;;;;;;4995942;28;21058;-78
2022/05/31 03:38:33;;;;;;;3.58;2.38;;;5.90;99.90;;;;;;4994561;28;20026;-79
2022/05/31 03:41:00;;;;;;;3.17;2.08;;;5.90;99.90;;;;;;4967404;28;20026;-80
2022/05/31 03:43:43;;;;;;;2.95;2.30;;;5.90;99.90;;;;;;4966174;28;20484;-78
2022/05/31 03:46:21;;;;;;;2.88;2.58;;;5.90;99.90;;;;;;5006336;28;20496;-79
2022/05/31 03:49:15;;;;;;;3.25;2.35;;;5.90;99.90;;;;;;4977766;28;20044;-79
2022/05/31 03:51:48;;;;;;;3.13;1.85;;;5.90;99.90;;;;;;4992709;28;20046;-79
2022/05/31 03:54:38;;;;;;;3.05;2.22;;;5.90;99.90;;;;;;4999014;28;20065;-78
2022/05/31 03:57:06;;;;;;;1.88;1.67;;;5.90;99.90;;;;;;4994273;28;20495;-79
2022/05/31 03:59:38;;;;;;;1.92;1.60;;;6.00;99.90;;;;;;4993310;28;20049;-78
2022/05/31 04:02:06;;;;;;;2.25;1.50;;;6.00;99.90;;;;;;4973917;28;20569;-80
2022/05/31 04:04:32;;;;;;;1.92;1.77;;;6.00;99.90;;;;;;4991154;28;20023;-78
2022/05/31 04:06:58;;;;;;;3.63;2.03;;;6.00;99.90;;;;;;4972401;28;20120;-78
2022/05/31 04:09:25;;;;;;;1.70;1.60;;;6.00;99.90;;;;;;4997674;28;20034;-79
2022/05/31 04:11:50;;;;;;;4.40;2.17;;;6.10;99.90;;;;;;4961424;28;20034;-81
2022/05/31 04:14:39;;;;;;;2.15;1.95;;;6.10;99.90;;;;;;5009296;28;20056;-80
2022/05/31 04:17:06;;;;;;;3.25;2.20;;;6.10;99.90;;;;;;4968825;28;20029;-80
2022/05/31 04:19:33;;;;;;;2.55;1.80;;;6.20;99.90;;;;;;5013434;28;20096;-77
2022/05/31 04:22:00;;;;;;;1.95;1.70;;;6.30;99.90;;;;;;4975989;28;20034;-79
2022/05/31 04:24:26;;;;;;;2.22;1.80;;;6.40;99.90;;;;;;4999839;28;20140;-78
2022/05/31 04:27:17;;;;;;;2.47;2.00;;;6.50;99.90;;;;;;4998670;28;20055;-78
2022/05/31 04:30:01;;;;;;;3.38;1.80;;;6.50;99.90;;;;;;4993896;28;20539;-79
2022/05/31 04:32:46;;;;;;;2.30;2.05;;;6.60;99.90;;;;;;4981779;28;20412;-79
2022/05/31 04:35:28;;;;;;;2.03;1.83;;;6.70;99.90;;;;;;4982197;28;20037;-79
2022/05/31 04:37:53;;;;;;;2.28;2.08;;;6.80;99.90;;;;;;4997435;28;20032;-78
2022/05/31 04:40:37;;;;;;;2.35;2.00;;;6.80;99.90;;;;;;4983730;28;20030;-79
2022/05/31 04:43:18;;;;;;;2.38;2.13;;;7.00;99.90;;;;;;5016426;28;20052;-80
2022/05/31 04:46:20;;;;;;;5.32;2.92;;;7.10;99.90;;;;;;5003783;28;20100;-79
2022/05/31 04:48:51;;;;;;;9.35;4.35;;;7.20;99.90;;;;;;5019857;28;20034;-79
2022/05/31 04:51:17;;;;;;;6.28;4.00;;;7.30;99.90;;;;;;5021527;28;20572;-79
2022/05/31 04:53:51;;;;;;;5.15;3.90;;;7.40;99.90;;;;;;4983156;28;20041;-80
2022/05/31 04:56:46;;;;;;;4.75;3.45;;;7.50;99.90;;;;;;4993342;28;20176;-78
2022/05/31 04:59:12;;;;;;;4.53;3.40;;;7.60;99.90;;;;;;4984255;28;20026;-78
2022/05/31 05:01:40;;;;;;;3.38;1.80;;;7.70;99.90;;;;;;4999354;28;20108;-80
2022/05/31 05:04:17;;;;;;;1.77;1.40;;;7.80;99.90;;;;;;4993979;28;20096;-80
2022/05/31 05:06:52;;;;;;;3.35;1.70;;;7.90;99.90;;;;;;4977711;28;20518;-78
2022/05/31 05:09:23;;;;;;;2.80;1.40;;;7.90;99.90;;;;;;5000697;28;20523;-79
2022/05/31 05:12:09;;;;;;;1.65;1.38;;;8.00;99.90;;;;;;5001524;28;20077;-78
2022/05/31 05:14:37;;;;;;;1.58;1.48;;;8.10;99.90;;;;;;4987224;28;20034;-78
2022/05/31 05:17:08;;;;;;;3.42;2.90;;;8.10;99.90;;;;;;4975856;28;20026;-79
2022/05/31 05:19:40;;;;;;;6.00;4.80;;;8.30;99.90;;;;;;4987490;28;20037;-78
2022/05/31 05:22:06;;;;;;;7.10;5.35;;;8.40;99.90;;;;;;5015104;28;20030;-78
2022/05/31 05:24:32;;;;;;;3.35;2.17;;;8.50;99.90;;;;;;4982797;28;20030;-79
2022/05/31 05:27:36;;;;;;;2.72;1.92;;;8.70;99.90;;;;;;4956035;28;20043;-79
2022/05/31 05:33:19;;;;;;;2.10;1.90;;;9.70;99.90;;;;;;4998180;28;20038;-80
2022/05/31 05:36:06;;;;;;;7.90;4.90;;;10.40;99.90;;;;;;5007227;28;20041;-79
2022/05/31 05:38:33;;;;;;;3.53;3.00;;;11.00;99.90;;;;;;4972084;28;20026;-80
2022/05/31 05:41:23;;;;;;;2.75;1.85;;;11.50;99.90;;;;;;4990472;28;20053;-80
2022/05/31 05:44:08;;;;;;;;;;;12.00;99.90;;;;;;5015918;28;20065;-80
2022/05/31 05:46:34;;;;;;;2.55;1.70;;;12.50;99.90;;;;;;5003792;28;19910;-80
2022/05/31 05:49:01;;;;;;;2.25;1.55;;;12.90;99.90;;;;;;5008140;28;20395;-80
2022/05/31 05:51:32;;;;;;;2.17;1.50;;;13.30;99.90;;;;;;5000027;28;20042;-79
2022/05/31 05:54:31;;;;;;;1.92;1.70;;;13.60;99.90;;;;;;4972002;28;20064;-79
2022/05/31 05:57:15;;;;;;;2.28;2.10;;;14.00;99.90;;;;;;5000298;28;20069;-79
2022/05/31 05:59:59;;;;;;;2.42;1.83;;;14.20;99.90;;;;;;5004279;28;20044;-79
2022/05/31 06:02:47;;;;;;;3.60;1.90;;;14.50;99.90;;;;;;5006264;28;20041;-80
2022/05/31 06:05:37;;;;;;;2.15;1.70;;;14.80;99.90;;;;;;4995856;28;20046;-80
2022/05/31 06:08:14;;;;;;;3.00;1.73;;;14.90;99.90;;;;;;4999792;28;20086;-80
2022/05/31 06:10:54;;;;;;;1.55;1.45;;;14.80;99.90;;;;;;5001658;28;20053;-79
2022/05/31 06:13:29;;;;;;;2.45;1.60;;;14.60;99.90;;;;;;5014424;28;20492;-79
2022/05/31 06:15:56;;;;;;;1.80;1.70;;;14.60;99.90;;;;;;4998140;28;20034;-79
2022/05/31 06:18:29;;;;;;;1.83;1.60;;;14.70;99.70;;;;;;4989085;28;20030;-78
2022/05/31 06:21:00;;;;;;;4.82;3.00;;;15.00;99.80;;;;;;4991690;28;20023;-79
2022/05/31 06:23:26;;;;;;;3.03;1.48;;;15.10;98.40;;;;;;4961649;28;20038;-80
2022/05/31 06:25:54;;;;;;;2.92;1.40;;;15.40;97.00;;;;;;5008621;28;20029;-80
2022/05/31 06:28:52;;;;;;;2.45;1.58;;;15.60;95.70;;;;;;4989149;28;20042;-80
2022/05/31 06:31:18;;;;;;;1.58;1.45;;;15.60;95.20;;;;;;4979753;28;20045;-78
2022/05/31 06:33:44;;;;;;;1.70;1.55;;;15.70;95.10;;;;;;4988661;28;20034;-78
2022/05/31 06:36:11;;;;;;;3.10;1.30;;;15.90;95.00;;;;;;4983923;28;20018;-82
2022/05/31 06:38:37;;;;;;;1.45;1.33;;;15.80;94.10;;;;;;5022623;28;20053;-80
2022/05/31 06:41:04;;;;;;;2.55;1.52;;;16.10;93.70;;;;;;4996779;28;20022;-81
2022/05/31 06:43:49;;;;;;;2.83;1.60;;;16.40;94.00;;;;;;4996131;28;20125;-80
2022/05/31 06:46:33;;;;;;;3.25;1.30;;;16.90;93.60;;;;;;5008762;28;20761;-80
2022/05/31 06:49:18;;;;;;;1.42;1.33;;;17.10;90.70;;;;;;4989355;28;20131;-78
2022/05/31 06:57:56;;;;;;;2.63;1.40;;;17.70;87.10;;;;;;5023553;28;20451;-81
2022/05/31 07:00:33;;;;;;;1.42;1.05;;;17.90;86.60;;;;;;4962959;28;20030;-81
2022/05/31 07:02:59;;;;;;;1.48;1.38;;;18.10;82.50;;;;;;4995506;28;20045;-81
2022/05/31 07:05:32;;;;;;;1.48;1.20;;;18.10;81.30;;;;;;4981352;28;20563;-80
2022/05/31 07:07:59;;;;;;;1.30;1.15;;;18.30;85.40;;;;;;4996024;28;20084;-80
2022/05/31 07:10:52;;;;;;;1.38;1.20;;;18.60;82.70;;;;;;4985787;28;20069;-80
2022/05/31 07:13:56;;;;;;;2.13;1.25;;;19.00;79.60;;;;;;5011227;28;20444;-83
2022/05/31 07:16:45;;;;;;;2.13;1.35;;;19.20;74.90;;;;;;5007722;28;20497;-80
2022/05/31 07:19:33;;;;;;;2.58;1.20;;;19.10;75.00;;;;;;4993193;28;20504;-80
2022/05/31 07:21:59;;;;;;;2.95;1.92;;;19.40;75.40;;;;;;4979551;28;20093;-82
2022/05/31 07:24:25;;;;;;;2.28;1.50;;;19.70;74.50;;;;;;5002882;28;20037;-79
2022/05/31 07:27:08;;;;;;;1.00;0.90;;;20.00;74.80;;;;;;5006062;28;20373;-83
2022/05/31 07:29:35;;;;;;;1.52;1.20;;;20.30;73.80;;;;;;5001620;28;20147;-82
2022/05/31 07:32:01;;;;;;;4.93;1.67;;;20.70;71.70;;;;;;4980993;28;20036;-81
2022/05/31 07:34:29;;;;;;;1.42;1.17;;;21.10;72.80;;;;;;4976572;28;20620;-82
2022/05/31 07:36:56;;;;;;;2.83;1.00;;;21.30;67.50;;;;;;5002641;28;20041;-83
2022/05/31 07:39:23;;;;;;;1.38;1.17;;;21.80;67.80;;;;;;5020733;28;20022;-82
2022/05/31 07:41:54;;;;;;;2.53;1.15;;;21.80;61.80;;;;;;4999585;28;20034;-83
2022/05/31 07:44:21;;;;;;;1.90;1.08;;;21.70;60.70;;;;;;4999028;28;20429;-82
2022/05/31 07:46:47;;;;;;;1.20;1.10;;;22.00;63.00;;;;;;4982562;28;20025;-83
2022/05/31 07:49:14;;;;;;;1.60;1.10;;;22.20;60.10;;;;;;4982512;28;20031;-84
2022/05/31 07:51:48;;;;;;;1.70;1.08;;;21.90;57.40;;;;;;4998056;28;20318;-81
2022/05/31 07:54:32;;;;;;;1.95;1.20;;;21.60;58.00;;;;;;5002565;28;20153;-81
2022/05/31 08:00:31;;;;;;;1.40;1.30;;;21.20;58.60;;;;;;4964997;28;20137;-82
2022/05/31 08:02:58;;;;;;;1.48;1.20;;;21.20;58.90;;;;;;4997449;28;20101;-84
2022/05/31 08:05:23;;;;;;;1.33;1.23;;;21.30;58.20;;;;;;4973919;28;20062;-83
2022/05/31 08:07:49;;;;;;;4.32;1.20;;;21.40;58.40;;;;;;5009541;28;20041;-82
2022/05/31 08:10:17;;;;;;;1.98;1.40;;;21.10;59.80;;;;;;5014270;28;20032;-83
2022/05/31 08:12:43;;;;;;;1.30;1.20;;;20.70;58.10;;;;;;5007196;28;20050;-83
2022/05/31 08:15:10;;;;;;;2.75;1.40;;;20.30;60.70;;;;;;4991589;28;20049;-81
2022/05/31 08:17:36;;;;;;;1.77;1.10;;;20.20;59.90;;;;;;5002435;28;20025;-83
2022/05/31 08:20:04;;;;;;;1.42;1.20;;;20.10;62.00;;;;;;4997753;28;20056;-81
2022/05/31 08:22:30;;;;;;;3.63;1.45;;;20.00;61.70;;;;;;4997161;28;20026;-84
2022/05/31 08:24:55;;;;;;;1.30;1.20;;;19.70;62.60;;;;;;4996986;28;20735;-82
2022/05/31 08:27:21;;;;;;;2.38;1.40;;;19.80;62.90;;;;;;4997387;28;20034;-81
2022/05/31 08:29:47;;;;;;;0.85;0.85;;;19.50;60.40;;;;;;4997642;28;20037;-82
2022/05/31 08:32:12;;;;;;;1.17;1.08;;;19.50;60.10;;;;;;4994392;28;20037;-83
2022/05/31 08:34:38;;;;;;;3.38;1.00;;;19.40;61.50;;;;;;5015881;28;20099;-82
2022/05/31 08:37:04;;;;;;;2.35;1.17;;;19.30;59.10;;;;;;5014089;28;20030;-83
2022/05/31 08:39:30;;;;;;;1.40;1.10;;;19.20;61.70;;;;;;4997714;28;20088;-83
2022/05/31 08:42:21;;;;;;;1.52;1.23;;;19.20;61.40;;;;;;4992052;28;20034;-82
2022/05/31 08:45:00;;;;;;;1.38;1.05;;;19.20;61.60;;;;;;5013252;28;20034;-82
2022/05/31 08:48:20;;;;;;;1.83;0.98;;;19.10;60.90;;;;;;4999444;28;20481;-83
2022/05/31 08:53:45;;;;;;;2.30;1.08;;;18.90;60.40;;;;;;5012500;28;20034;-82
2022/05/31 08:59:05;;;;;;;1.58;1.02;;;19.00;53.90;;;;;;4983010;28;20402;-82
2022/05/31 09:01:49;;;;;;;2.45;1.10;;;19.30;57.70;;;;;;4989155;28;20040;-82
2022/05/31 09:04:17;;;;;;;0.80;0.80;;;19.30;53.70;;;;;;4979162;28;20453;-82
2022/05/31 09:06:48;;;;;;;0.88;0.88;;;19.40;52.30;;;;;;4995576;28;20030;-82
2022/05/31 09:09:26;;;;;;;0.73;0.70;;;19.30;53.80;;;;;;4998696;28;20033;-83
2022/05/31 09:12:13;;;;;;;0.70;0.70;;;19.20;52.50;;;;;;5014200;28;20033;-82
2022/05/31 09:15:10;;;;;;;1.20;0.90;;;19.20;53.60;;;;;;5000772;28;20030;-80
2022/05/31 09:17:42;;;;;;;;;;;19.20;53.60;;;;;;5016934;28;20068;-80
2022/05/31 09:20:15;;;;;;;1.88;1.00;;;19.20;54.90;;;;;;5024682;28;19909;-80
2022/05/31 09:22:44;;;;;;;1.20;0.98;;;19.20;51.10;;;;;;4973605;28;20480;-81
2022/05/31 09:25:11;;;;;;;1.00;0.80;;;19.20;49.70;;;;;;4996045;28;20034;-80
2022/05/31 09:27:41;;;;;;;1.33;0.80;;;19.20;52.80;;;;;;5017218;28;20022;-82
2022/05/31 09:30:36;;;;;;;2.58;0.70;;;19.20;53.40;;;;;;5018359;28;20038;-80
2022/05/31 09:33:43;;;;;;;1.35;0.73;;;19.10;55.00;;;;;;5013477;28;20039;-80
2022/05/31 09:36:32;;;;;;;1.60;1.05;;;19.10;54.50;;;;;;4957339;28;20034;-81
2022/05/31 09:39:00;;;;;;;1.17;1.08;;;19.00;55.30;;;;;;5016581;28;20500;-83
2022/05/31 09:41:38;;;;;;;1.17;1.08;;;18.90;56.30;;;;;;5006331;28;20480;-83
2022/05/31 09:44:34;;;;;;;2.35;0.90;;;19.00;57.60;;;;;;4994598;28;20036;-81
2022/05/31 09:47:03;;;;;;;2.03;1.15;;;19.20;56.60;;;;;;4997020;28;20416;-83
2022/05/31 09:49:36;;;;;;;0.90;0.90;;;19.10;56.10;;;;;;5002274;28;20033;-84
2022/05/31 09:52:07;;;;;;;0.88;0.88;;;19.10;56.10;;;;;;5012268;28;20030;-81
2022/05/31 09:58:08;;;;;;;3.08;0.98;;;19.30;56.40;;;;;;5025334;28;20053;-79
2022/05/31 10:01:12;;;;;;;2.83;1.90;;;19.40;55.90;;;;;;5016069;28;20025;-82
2022/05/31 10:03:46;;;;;;;7.00;1.10;;;19.20;56.60;;;;;;5000699;28;20428;-83
2022/05/31 10:06:24;;;;;;;1.13;1.00;;;19.10;55.10;;;;;;5005836;28;20579;-81
2022/05/31 10:08:52;;;;;;;1.00;0.90;;;19.00;55.10;;;;;;5001478;28;20058;-81
2022/05/31 10:11:34;;;;;;;0.88;0.88;;;19.10;54.50;;;;;;5012902;28;20023;-81
2022/05/31 10:14:04;;;;;;;1.10;0.93;;;19.20;55.10;;;;;;5018241;28;20424;-82
2022/05/31 10:16:34;;;;;;;1.10;1.10;;;19.40;55.10;;;;;;5016771;28;20034;-83
2022/05/31 10:19:04;;;;;;;1.70;1.00;;;19.50;53.80;;;;;;4987777;28;20041;-81
2022/05/31 10:21:34;;;;;;;0.70;0.70;;;19.60;55.60;;;;;;4999213;28;20481;-84
2022/05/31 10:24:06;;;;;;;2.63;1.00;;;19.60;54.90;;;;;;5000160;28;20669;-84
2022/05/31 10:27:06;;;;;;;0.80;0.80;;;19.70;58.40;;;;;;4994046;28;20038;-82
2022/05/31 10:29:53;;;;;;;1.00;0.70;;;19.90;55.10;;;;;;5015917;28;20065;-81
2022/05/31 10:33:04;;;;;;;1.48;0.90;;;20.10;54.20;;;;;;5007786;28;20048;-84
2022/05/31 10:35:32;;;;;;;0.80;0.80;;;20.20;54.80;;;;;;4999228;28;20039;-82
2022/05/31 10:38:10;;;;;;;1.27;0.70;;;20.30;56.20;;;;;;5016944;28;20033;-81
2022/05/31 10:40:52;;;;;;;2.42;0.90;;;20.50;53.90;;;;;;5007107;28;20071;-82
2022/05/31 10:43:27;;;;;;;2.30;0.80;;;20.50;50.30;;;;;;5004391;28;20061;-82
2022/05/31 10:45:56;;;;;;;0.63;0.60;;;20.30;50.00;;;;;;5004949;28;20025;-82
2022/05/31 10:48:23;;;;;;;4.55;1.00;;;20.30;52.50;;;;;;4998491;28;20026;-82
2022/05/31 10:51:06;;;;;;;0.73;0.60;;;20.20;51.50;;;;;;5021765;28;20108;-82
2022/05/31 10:53:53;;;;;;;2.63;1.35;;;20.10;48.90;;;;;;4998983;28;20042;-83
2022/05/31 10:56:46;;;;;;;1.40;1.02;;;19.90;49.90;;;;;;5001973;28;20048;-83
2022/05/31 10:59:18;;;;;;;1.90;1.05;;;19.80;52.90;;;;;;5015432;28;20451;-83
2022/05/31 11:01:47;;;;;;;3.72;1.77;;;19.90;55.40;;;;;;5003899;28;20033;-81
2022/05/31 11:04:53;;;;;;;1.95;0.60;;;20.00;56.40;;;;;;5014717;28;20026;-81
2022/05/31 11:11:29;;;;;;;0.55;0.55;;;20.10;50.80;;;;;;5012175;28;20493;-81
2022/05/31 11:14:09;;;;;;;2.42;0.82;;;20.40;50.90;;;;;;5009194;28;20054;-82
2022/05/31 11:17:06;;;;;;;2.92;0.90;;;20.40;51.10;;;;;;5023340;28;20033;-82
2022/05/31 11:19:43;;;;;;;0.85;0.77;;;20.50;49.30;;;;;;5014787;28;20440;-83
2022/05/31 11:22:28;;;;;;;1.33;0.82;;;20.70;50.70;;;;;;5004994;28;20038;-82
2022/05/31 11:25:05;;;;;;;2.05;0.95;;;20.70;51.10;;;;;;5007618;28;20034;-84
2022/05/31 11:27:45;;;;;;;1.33;0.80;;;20.70;50.80;;;;;;4996161;28;20042;-83
2022/05/31 11:30:31;;;;;;;1.98;0.80;;;20.90;53.60;;;;;;4994812;28;20031;-84
2022/05/31 11:33:27;;;;;;;;;;;20.90;47.90;;;;;;4965666;28;20164;-81
2022/05/31 11:36:30;;;;;;;1.13;0.60;;;21.00;51.60;;;;;;5011103;28;19915;-82
2022/05/31 11:39:49;;;;;;;0.77;0.73;;;21.20;53.60;;;;;;5014754;28;20030;-82
2022/05/31 11:42:22;;;;;;;3.75;0.90;;;21.20;49.40;;;;;;4904943;29;20036;-82
2022/05/31 11:45:03;;;;;;;1.17;0.70;;;21.10;48.30;;;;;;4987025;28;20034;-81
2022/05/31 11:47:57;;;;;;;0.80;0.80;;;21.10;50.20;;;;;;5016175;28;20038;-81
2022/05/31 11:50:35;;;;;;;1.50;1.15;;;20.80;49.90;;;;;;5015588;28;20436;-81
2022/05/31 11:53:18;;;;;;;1.52;0.82;;;20.70;48.40;;;;;;5019109;28;20054;-80
2022/05/31 11:55:50;;;;;;;1.02;0.90;;;20.60;48.70;;;;;;5008041;28;20549;-81
2022/05/31 11:58:51;;;;;;;3.38;1.00;;;20.80;50.00;;;;;;4994185;28;20030;-82
2022/05/31 12:01:43;;;;;;;1.23;0.80;;;21.00;50.00;;;;;;4979782;28;20026;-80
2022/05/31 12:04:33;;;;;;;1.77;0.95;;;21.10;49.40;;;;;;5008810;28;20034;-80
2022/05/31 12:07:15;;;;;;;0.75;0.75;;;21.00;48.60;;;;;;5005865;28;20120;-81
2022/05/31 12:09:56;;;;;;;0.93;0.75;;;21.10;52.00;;;;;;4997094;28;20037;-80
2022/05/31 12:12:31;;;;;;;1.42;0.93;;;21.10;52.30;;;;;;4998110;28;20055;-81
2022/05/31 12:15:11;;;;;;;1.20;1.10;;;21.10;48.80;;;;;;5002354;28;20033;-81
2022/05/31 12:17:47;;;;;;;1.58;1.17;;;21.00;48.80;;;;;;4972304;28;20030;-81
2022/05/31 12:20:22;;;;;;;1.13;0.80;;;21.00;52.40;;;;;;4977616;28;20029;-82
2022/05/31 12:23:26;;;;;;;0.98;0.88;;;20.80;49.50;;;;;;5014151;28;20029;-81
2022/05/31 12:25:54;;;;;;;3.33;1.10;;;20.80;51.60;;;;;;4983338;28;20029;-80
2022/05/31 12:28:25;;;;;;;1.27;0.95;;;20.80;52.20;;;;;;5015538;28;20612;-81
2022/05/31 12:30:59;;;;;;;0.98;0.90;;;20.70;50.70;;;;;;4984947;28;20034;-81
2022/05/31 12:33:43;;;;;;;1.00;0.90;;;20.40;50.80;;;;;;4988371;28;20030;-80
2022/05/31 12:36:13;;;;;;;1.73;1.05;;;20.40;51.10;;;;;;4980302;28;20113;-80
2022/05/31 12:39:19;;;;;;;0.70;0.70;;;20.40;51.50;;;;;;4967951;28;20034;-80
2022/05/31 12:41:47;;;;;;;0.85;0.68;;;20.50;55.50;;;;;;4997662;28;20030;-82
2022/05/31 12:44:26;;;;;;;1.38;0.80;;;20.60;54.40;;;;;;5009610;28;20068;-82
2022/05/31 12:46:52;;;;;;;0.90;0.65;;;20.70;56.30;;;;;;4996171;28;20038;-81
2022/05/31 12:49:19;;;;;;;2.72;0.70;;;20.80;57.60;;;;;;4998141;28;20037;-80
2022/05/31 12:54:56;;;;;;;1.58;0.95;;;20.90;52.80;;;;;;5010544;28;20034;-80
2022/05/31 12:58:26;;;;;;;1.92;0.93;;;21.00;52.40;;;;;;4994619;28;20037;-81
2022/05/31 13:00:35;;;;;;;2.30;1.30;;;21.10;53.50;;;;;;5016963;28;20437;-81
2022/05/31 13:03:25;;;;;;;0.98;0.90;;;21.10;55.60;;;;;;4981495;28;20028;-80
2022/05/31 13:05:59;;;;;;;2.47;1.23;;;21.10;54.00;;;;;;4984222;28;20090;-81
2022/05/31 13:08:44;;;;;;;1.25;0.70;;;21.20;55.30;;;;;;5000271;28;20627;-81
2022/05/31 13:19:45;;;;;;;2.03;1.05;;;21.70;55.40;;;;;;5014243;28;20030;-80
2022/05/31 13:22:13;;;;;;;2.97;1.00;;;21.70;51.00;;;;;;5003228;28;20401;-81
2022/05/31 13:24:49;;;;;;;3.17;2.03;;;21.30;50.10;;;;;;4997804;28;20045;-83
2022/05/31 13:27:23;;;;;;;1.67;1.10;;;21.20;53.50;;;;;;4998853;28;20041;-81
2022/05/31 13:30:01;;;;;;;0.90;0.80;;;21.10;56.00;;;;;;5016227;28;20582;-80
2022/05/31 13:32:32;;;;;;;0.77;0.75;;;21.10;57.10;;;;;;5008977;28;20664;-83
2022/05/31 13:34:58;;;;;;;1.95;1.05;;;21.00;59.00;;;;;;4998200;28;20416;-82
2022/05/31 13:37:24;;;;;;;3.88;1.45;;;21.00;57.00;;;;;;5002414;28;20041;-83
2022/05/31 13:39:50;;;;;;;3.15;1.60;;;20.70;53.30;;;;;;5008607;28;20038;-79
2022/05/31 13:42:22;;;;;;;4.68;1.65;;;20.60;54.20;;;;;;5009884;28;20022;-80
2022/05/31 13:44:48;;;;;;;4.80;1.73;;;20.50;55.70;;;;;;5005237;28;20061;-80
2022/05/31 13:47:18;;;;;;;2.63;1.95;;;20.40;56.90;;;;;;4994097;28;20026;-81
2022/05/31 13:49:46;;;;;;;2.47;1.65;;;20.30;56.90;;;;;;4991928;28;20113;-81
2022/05/31 13:52:26;;;;;;;3.20;1.30;;;20.30;54.30;;;;;;4992687;28;20038;-80
2022/05/31 13:55:11;;;;;;;1.90;1.00;;;20.40;54.80;;;;;;4997570;28;20118;-80
2022/05/31 13:57:37;;;;;;;1.52;1.23;;;20.50;57.40;;;;;;5010385;28;20033;-81
2022/05/31 14:00:07;;;;;;;2.22;1.35;;;20.70;57.10;;;;;;5007269;28;20031;-80
2022/05/31 14:02:53;;;;;;;1.45;1.20;;;20.90;56.00;;;;;;5002005;28;20023;-80
2022/05/31 14:05:32;;;;;;;8.48;3.35;;;21.10;57.80;;;;;;5002178;28;20041;-79
2022/05/31 14:07:59;;;;;;;3.53;2.05;;;21.10;52.80;;;;;;5027633;28;20039;-80
2022/05/31 14:10:26;;;;;;;6.85;2.95;;;21.00;53.10;;;;;;5001707;28;20041;-82
2022/05/31 14:12:59;;;;;;;6.30;2.80;;;21.00;53.80;;;;;;5009828;28;20078;-82